Time;durP1;ratioP1;P1;durP2;ratioP2;P2;SDS_P1;SDS_P2;PMS_P1;PMS_P2;Temp;Humidity;BMP_temperature;BMP_pressure;BME280_temperature;BME280_humidity;BME280_pressure;Samples;Min_cycle;Max_cycle;Signal;HPM_P1;HPM_P2
2022/04/19 00:01:17;;;;;;;5.63;2.97;;;;;;;6.51;100.00;100382.97;5052032;28;20028;-67
2022/04/19 00:03:42;;;;;;;5.35;2.83;;;;;;;6.49;100.00;100386.53;5055108;28;20032;-67
2022/04/19 00:06:07;;;;;;;4.45;2.60;;;;;;;6.48;100.00;100377.00;5035239;28;20074;-67
2022/04/19 00:08:34;;;;;;;6.85;2.75;;;;;;;6.51;100.00;100376.91;5060433;28;20930;-67
2022/04/19 00:11:01;;;;;;;6.00;2.65;;;;;;;6.51;100.00;100385.59;5054780;28;20031;-67
2022/04/19 00:13:28;;;;;;;5.40;2.80;;;;;;;6.43;100.00;100376.28;5071676;28;20028;-67
2022/04/19 00:15:55;;;;;;;5.88;3.22;;;;;;;6.43;100.00;100384.13;5063006;28;20028;-66
2022/04/19 00:18:21;;;;;;;6.07;3.20;;;;;;;6.36;100.00;100375.63;5035556;28;20885;-66
2022/04/19 00:20:47;;;;;;;8.48;3.70;;;;;;;6.30;100.00;100369.78;5053107;28;20078;-66
2022/04/19 00:23:13;;;;;;;5.63;3.45;;;;;;;6.26;100.00;100369.03;5092706;28;20055;-66
2022/04/19 00:25:42;;;;;;;6.03;3.60;;;;;;;6.23;100.00;100373.47;5095201;28;20458;-66
2022/04/19 00:28:07;;;;;;;4.50;3.03;;;;;;;6.06;100.00;100354.03;5095392;28;20106;-66
2022/04/19 00:30:33;;;;;;;6.10;3.70;;;;;;;6.15;100.00;100365.94;5095225;28;20115;-66
2022/04/19 00:32:59;;;;;;;8.07;3.42;;;;;;;6.13;100.00;100379.00;5067438;28;20126;-66
2022/04/19 00:35:24;;;;;;;5.43;3.65;;;;;;;6.08;100.00;100369.66;5053140;28;20108;-67
2022/04/19 00:37:50;;;;;;;6.63;3.45;;;;;;;6.06;100.00;100372.28;5052006;28;20917;-67
2022/04/19 00:40:16;;;;;;;5.03;3.45;;;;;;;6.00;100.00;100359.44;5053357;28;20031;-66
2022/04/19 00:42:41;;;;;;;4.88;3.33;;;;;;;5.89;100.00;100348.50;5054415;28;20131;-66
2022/04/19 00:45:07;;;;;;;9.65;3.88;;;;;;;5.87;100.00;100342.50;5034698;28;20020;-67
2022/04/19 00:47:33;;;;;;;5.25;3.50;;;;;;;5.91;100.00;100351.94;5035961;28;20036;-67
2022/04/19 00:50:02;;;;;;;7.10;3.80;;;;;;;5.91;100.00;100356.28;5035696;28;20032;-66
2022/04/19 00:52:32;;;;;;;5.05;3.35;;;;;;;5.88;100.00;100356.38;5053534;28;20035;-66
2022/04/19 00:54:59;;;;;;;4.88;3.10;;;;;;;5.83;100.00;100347.81;5052425;28;20089;-68
2022/04/19 00:57:25;;;;;;;5.38;3.25;;;;;;;5.81;100.00;100366.13;5033838;28;20942;-67
2022/04/19 00:59:53;;;;;;;4.97;3.42;;;;;;;5.77;100.00;100367.13;5034382;28;20035;-67
2022/04/19 01:02:19;;;;;;;7.57;4.55;;;;;;;5.74;100.00;100367.22;5052947;28;20048;-67
2022/04/19 01:04:45;;;;;;;6.25;3.20;;;;;;;5.68;100.00;100356.94;5052412;28;20096;-67
2022/04/19 01:07:11;;;;;;;6.22;3.97;;;;;;;5.55;100.00;100348.66;5053260;28;20047;-66
2022/04/19 01:09:36;;;;;;;5.10;3.33;;;;;;;5.52;100.00;100342.69;5053804;28;20067;-67
2022/04/19 01:14:48;;;;;;;6.32;3.70;;;;;;;5.52;100.00;100353.13;5094613;28;20112;-67
2022/04/19 01:17:14;;;;;;;4.05;2.90;;;;;;;5.55;100.00;100358.22;5067570;28;20032;-67
2022/04/19 01:19:40;;;;;;;8.38;3.67;;;;;;;5.53;100.00;100355.69;5059434;28;20042;-67
2022/04/19 01:22:06;;;;;;;6.20;3.60;;;;;;;5.47;100.00;100349.81;5076392;28;20024;-67
2022/04/19 01:24:32;;;;;;;6.55;3.38;;;;;;;5.47;100.00;100355.88;5076002;28;20039;-67
2022/04/19 01:26:57;;;;;;;5.35;3.75;;;;;;;5.43;100.00;100353.41;5094229;28;20024;-67
2022/04/19 01:29:23;;;;;;;5.60;3.72;;;;;;;5.27;100.00;100328.72;5094243;28;20032;-67
2022/04/19 01:31:51;;;;;;;5.93;3.50;;;;;;;5.38;100.00;100355.28;5045576;28;20113;-67
2022/04/19 01:34:17;;;;;;;9.32;4.25;;;;;;;5.25;100.00;100346.13;5050332;28;20028;-67
2022/04/19 01:36:42;;;;;;;5.90;4.00;;;;;;;5.30;100.00;100358.13;5052999;28;20032;-67
2022/04/19 01:39:10;;;;;;;5.13;3.63;;;;;;;5.07;100.00;100337.94;5051968;28;20876;-67
2022/04/19 01:41:37;;;;;;;6.00;4.35;;;;;;;5.20;100.00;100354.09;5052018;28;20024;-67
2022/04/19 01:44:06;;;;;;;6.55;4.00;;;;;;;5.16;100.00;100344.66;5092123;28;20069;-67
2022/04/19 01:46:31;;;;;;;4.90;3.22;;;;;;;5.15;100.00;100348.16;5092277;28;20020;-67
2022/04/19 01:48:57;;;;;;;4.78;3.50;;;;;;;5.12;100.00;100358.66;5093362;28;20489;-67
2022/04/19 01:51:24;;;;;;;6.18;4.05;;;;;;;5.07;100.00;100342.28;5093838;28;20395;-67
2022/04/19 01:53:51;;;;;;;6.72;4.10;;;;;;;5.11;100.00;100359.53;5094044;28;20530;-66
2022/04/19 01:56:17;;;;;;;6.28;4.25;;;;;;;5.01;100.00;100340.72;5093550;28;20034;-66
2022/04/19 01:58:42;;;;;;;8.45;4.70;;;;;;;5.02;100.00;100339.84;5087987;28;20397;-66
2022/04/19 02:01:08;;;;;;;6.65;3.53;;;;;;;5.05;100.00;100352.78;5035695;28;20096;-66
2022/04/19 02:03:34;;;;;;;6.07;3.55;;;;;;;4.53;100.00;100269.22;5030395;28;20124;-66
2022/04/19 02:06:00;;;;;;;6.85;3.97;;;;;;;4.94;100.00;100338.34;5029701;28;20151;-66
2022/04/19 02:08:27;;;;;;;7.45;4.03;;;;;;;4.93;100.00;100350.53;5030960;28;20125;-66
2022/04/19 02:10:52;;;;;;;7.13;4.43;;;;;;;4.78;100.00;100327.50;5031632;28;20051;-66
2022/04/19 02:13:18;;;;;;;5.40;3.75;;;;;;;4.88;100.00;100348.91;5030904;28;20025;-66
2022/04/19 02:15:45;;;;;;;5.40;3.80;;;;;;;4.84;100.00;100342.94;5031644;28;20139;-66
2022/04/19 02:18:10;;;;;;;6.45;4.20;;;;;;;4.82;100.00;100342.16;5047023;28;20048;-66
2022/04/19 02:20:36;;;;;;;5.28;3.65;;;;;;;4.57;100.00;100302.94;5050035;28;20862;-67
2022/04/19 02:23:02;;;;;;;9.50;3.88;;;;;;;4.73;100.00;100339.78;5069071;28;20136;-66
2022/04/19 02:25:28;;;;;;;5.13;3.78;;;;;;;4.73;100.00;100339.78;5053088;28;20877;-66
2022/04/19 02:27:54;;;;;;;6.32;3.70;;;;;;;4.59;100.00;100318.50;5073132;28;20032;-67
2022/04/19 02:30:20;;;;;;;7.13;4.65;;;;;;;4.65;100.00;100331.34;5070959;28;20081;-67
2022/04/19 02:32:47;;;;;;;5.72;4.03;;;;;;;4.67;100.00;100334.75;5070540;28;20861;-66
2022/04/19 02:35:15;;;;;;;6.93;4.18;;;;;;;4.49;100.00;100309.25;5052912;28;20062;-67
2022/04/19 02:37:53;;;;;;;6.00;4.20;;;;;;;4.67;100.00;100339.09;5070512;28;20050;-67
2022/04/19 02:40:19;;;;;;;7.47;4.70;;;;;;;4.59;100.00;100328.91;5054436;28;20038;-67
2022/04/19 02:42:45;;;;;;;6.65;4.28;;;;;;;4.59;100.00;100336.72;5070894;28;20188;-67
2022/04/19 02:45:11;;;;;;;6.63;4.35;;;;;;;4.41;100.00;100305.97;5071690;28;20034;-67
2022/04/19 02:47:37;;;;;;;8.18;4.55;;;;;;;4.48;100.00;100321.41;5071886;28;20035;-67
2022/04/19 02:50:02;;;;;;;5.55;4.38;;;;;;;4.45;100.00;100313.69;5072789;28;20134;-67
2022/04/19 02:52:28;;;;;;;7.03;4.47;;;;;;;4.45;100.00;100323.22;5070346;28;20032;-67
2022/04/19 02:54:53;;;;;;;8.48;4.68;;;;;;;4.49;100.00;100333.50;5071022;28;20875;-67
2022/04/19 02:57:19;;;;;;;8.50;4.55;;;;;;;4.51;100.00;100328.25;5070251;28;20788;-66
2022/04/19 02:59:45;;;;;;;7.18;4.88;;;;;;;4.41;100.00;100311.19;5070462;28;20036;-66
2022/04/19 03:02:11;;;;;;;7.70;4.13;;;;;;;4.43;100.00;100317.19;5071330;28;20079;-66
2022/04/19 03:04:37;;;;;;;8.13;4.25;;;;;;;4.44;100.00;100326.72;5069779;28;20890;-66
2022/04/19 03:07:04;;;;;;;6.22;4.15;;;;;;;4.36;100.00;100313.91;5056623;28;20177;-66
2022/04/19 03:09:29;;;;;;;5.95;3.70;;;;;;;4.39;100.00;100315.59;5052876;28;20912;-66
2022/04/19 03:11:55;;;;;;;5.47;4.32;;;;;;;4.38;100.00;100319.06;5071204;28;20024;-66
2022/04/19 03:14:21;;;;;;;6.43;4.47;;;;;;;4.36;100.00;100318.28;5071210;28;20865;-65
2022/04/19 03:16:46;;;;;;;6.15;4.22;;;;;;;4.29;100.00;100311.53;5070387;28;20039;-66
2022/04/19 03:19:13;;;;;;;9.05;4.80;;;;;;;4.31;100.00;100326.19;5070422;28;20142;-66
2022/04/19 03:21:39;;;;;;;7.57;4.95;;;;;;;4.24;100.00;100318.56;5070646;28;20084;-67
2022/04/19 03:29:34;;;;;;;8.55;4.68;;;;;;;4.11;100.00;100318.91;5112830;28;20516;-67
2022/04/19 03:31:59;;;;;;;5.53;4.55;;;;;;;4.07;100.00;100319.00;5112884;28;20027;-67
2022/04/19 03:34:25;;;;;;;6.20;4.65;;;;;;;3.96;100.00;100301.06;5094610;28;20028;-67
2022/04/19 03:36:52;;;;;;;7.22;5.05;;;;;;;4.02;100.00;100313.91;5115361;28;20035;-67
2022/04/19 03:39:17;;;;;;;8.32;5.20;;;;;;;3.92;100.00;100301.19;5116457;28;20401;-67
2022/04/19 03:41:43;;;;;;;7.47;5.03;;;;;;;3.97;100.00;100309.72;5074117;28;20023;-67
2022/04/19 03:44:08;;;;;;;9.70;5.35;;;;;;;3.91;100.00;100302.94;5074161;28;20869;-67
2022/04/19 03:47:07;;;;;;;7.38;4.85;;;;;;;3.93;100.00;100306.34;5074970;28;20550;-67
2022/04/19 03:49:19;;;;;;;6.45;4.70;;;;;;;3.90;100.00;100313.38;5073896;28;20139;-67
2022/04/19 03:51:44;;;;;;;8.18;4.72;;;;;;;3.87;100.00;100314.31;5074904;28;20046;-67
2022/04/19 03:54:10;;;;;;;7.32;5.22;;;;;;;3.76;100.00;100292.91;5074792;28;20225;-67
2022/04/19 03:56:35;;;;;;;8.13;5.90;;;;;;;3.80;100.00;100312.75;5074840;28;20036;-67
2022/04/19 03:59:00;;;;;;;7.65;5.55;;;;;;;3.73;100.00;100303.38;5101968;28;20877;-67
2022/04/19 04:01:26;;;;;;;10.70;6.05;;;;;;;3.66;100.00;100299.22;5074523;28;20806;-67
2022/04/19 04:03:52;;;;;;;8.30;4.75;;;;;;;3.60;100.00;100300.22;5072904;28;20028;-67
2022/04/19 04:06:19;;;;;;;6.72;5.05;;;;;;;3.57;100.00;100294.25;5072381;28;20879;-67
2022/04/19 04:08:45;;;;;;;6.38;4.57;;;;;;;3.54;100.00;100307.31;5072771;28;20039;-67
2022/04/19 04:11:10;;;;;;;10.35;5.43;;;;;;;3.15;100.00;100230.31;5077619;28;20135;-67
2022/04/19 04:13:35;;;;;;;9.70;5.32;;;;;;;3.59;100.00;100318.44;5115866;28;20039;-67
2022/04/19 04:16:01;;;;;;;7.45;5.45;;;;;;;3.56;100.00;100324.56;5109279;28;20035;-67
2022/04/19 04:18:29;;;;;;;7.82;5.32;;;;;;;3.54;100.00;100325.50;5073391;28;20024;-66
2022/04/19 04:20:54;;;;;;;7.75;5.22;;;;;;;3.40;100.00;100306.75;5072378;28;20035;-67
2022/04/19 04:23:19;;;;;;;7.97;5.80;;;;;;;3.45;100.00;100320.47;5074241;28;20121;-67
2022/04/19 04:25:45;;;;;;;8.05;5.80;;;;;;;3.35;100.00;100321.56;5108899;28;20063;-67
2022/04/19 04:28:10;;;;;;;9.13;5.97;;;;;;;3.30;100.00;100316.50;5093941;28;20784;-66
2022/04/19 04:30:35;;;;;;;9.25;5.95;;;;;;;3.27;100.00;100313.13;5063332;28;20490;-66
2022/04/19 04:33:01;;;;;;;10.02;6.20;;;;;;;3.23;100.00;100312.34;5115342;28;20027;-66
2022/04/19 04:35:26;;;;;;;9.15;6.32;;;;;;;3.27;100.00;100331.28;5091269;28;20087;-67
2022/04/19 04:37:51;;;;;;;9.90;5.47;;;;;;;3.08;100.00;100294.47;5081597;28;20027;-67
2022/04/19 04:40:17;;;;;;;9.98;6.10;;;;;;;3.13;100.00;100322.94;5115323;28;20058;-67
2022/04/19 04:42:42;;;;;;;7.63;5.53;;;;;;;3.16;100.00;100333.25;5110248;28;20032;-67
2022/04/19 04:45:08;;;;;;;9.80;6.20;;;;;;;3.10;100.00;100329.06;5075813;28;20056;-67
2022/04/19 04:50:17;;;;;;;10.15;6.68;;;;;;;3.15;100.00;100327.22;5095371;28;20098;-67
2022/04/19 04:52:43;;;;;;;7.35;5.82;;;;;;;3.15;100.00;100328.94;5060353;28;20020;-67
2022/04/19 04:55:08;;;;;;;10.07;6.10;;;;;;;3.15;100.00;100332.41;5094956;28;20093;-67
2022/04/19 04:57:33;;;;;;;7.72;6.32;;;;;;;3.15;100.00;100326.34;5094813;28;20032;-67
2022/04/19 04:59:59;;;;;;;9.48;6.45;;;;;;;3.14;100.00;100324.66;5091757;28;20229;-67
2022/04/19 05:02:25;;;;;;;8.60;6.50;;;;;;;3.21;100.00;100323.66;5033472;28;20032;-67
2022/04/19 05:04:50;;;;;;;11.40;5.78;;;;;;;3.28;100.00;100333.84;5092820;28;20448;-67
2022/04/19 05:07:17;;;;;;;7.93;5.40;;;;;;;3.29;100.00;100327.78;5076366;28;20032;-66
2022/04/19 05:09:42;;;;;;;9.90;6.35;;;;;;;3.37;100.00;100325.88;5094393;28;20036;-66
2022/04/19 05:12:09;;;;;;;7.60;5.78;;;;;;;3.49;100.00;100337.72;5094229;28;20077;-66
2022/04/19 05:14:34;;;;;;;14.60;5.53;;;;;;;3.53;100.00;100328.97;5076537;28;20028;-66
2022/04/19 05:17:00;;;;;;;8.18;5.68;;;;;;;3.65;100.00;100328.66;5094168;28;20385;-67
2022/04/19 05:19:25;;;;;;;11.48;6.30;;;;;;;3.69;100.00;100332.91;5094535;28;20032;-66
2022/04/19 05:21:50;;;;;;;9.07;6.05;;;;;;;3.69;100.00;100312.13;5094146;28;20031;-66
2022/04/19 05:24:16;;;;;;;9.18;6.05;;;;;;;3.90;100.00;100335.00;5094406;28;20463;-66
2022/04/19 05:26:41;;;;;;;9.77;6.53;;;;;;;3.91;100.00;100318.53;5061092;28;20039;-66
2022/04/19 05:29:07;;;;;;;8.45;6.50;;;;;;;4.11;100.00;100339.69;5051454;28;20109;-66
2022/04/19 05:31:32;;;;;;;9.43;6.50;;;;;;;4.19;100.00;100331.69;5054326;28;20063;-66
2022/04/19 05:33:57;;;;;;;9.85;6.72;;;;;;;4.29;100.00;100330.56;5093647;28;20059;-66
2022/04/19 05:36:23;;;;;;;13.70;6.40;;;;;;;4.44;100.00;100337.13;5079003;28;20036;-67
2022/04/19 05:38:52;;;;;;;8.85;6.18;;;;;;;4.07;100.00;100252.28;5051315;28;20035;-67
2022/04/19 05:41:19;;;;;;;8.90;6.35;;;;;;;4.73;100.00;100344.97;5032667;28;20028;-66
2022/04/19 05:43:46;;;;;;;8.20;6.97;;;;;;;4.74;100.00;100320.69;5035307;28;20043;-66
2022/04/19 05:46:11;;;;;;;9.65;6.90;;;;;;;4.97;100.00;100330.44;5072786;28;20035;-66
2022/04/19 05:48:37;;;;;;;11.10;7.63;;;;;;;5.21;100.00;100331.47;5073701;28;20426;-66
2022/04/19 05:51:02;;;;;;;11.75;7.57;;;;;;;5.36;100.00;100338.84;5073819;28;20036;-66
2022/04/19 05:53:27;;;;;;;11.55;7.78;;;;;;;5.52;100.00;100337.47;5073446;28;20020;-66
2022/04/19 05:55:54;;;;;;;10.70;7.82;;;;;;;5.71;100.00;100336.03;5050962;28;20036;-66
2022/04/19 05:58:19;;;;;;;10.55;8.63;;;;;;;5.94;100.00;100341.41;5029103;28;20090;-66
2022/04/19 06:00:45;;;;;;;11.40;8.57;;;;;;;6.22;100.00;100348.31;5011671;28;20025;-66
2022/04/19 06:05:54;;;;;;;9.98;8.50;;;;;;;6.83;100.00;100339.19;5036360;28;20050;-66
2022/04/19 06:08:19;;;;;;;14.20;10.20;;;;;;;7.04;100.00;100341.91;5048853;28;20036;-66
2022/04/19 06:10:45;;;;;;;15.27;8.63;;;;;;;7.17;100.00;100340.53;5051119;28;20026;-66
2022/04/19 06:13:10;;;;;;;10.57;8.30;;;;;;;7.27;100.00;100324.50;5050084;28;20028;-66
2022/04/19 06:15:37;;;;;;;13.15;8.48;;;;;;;7.53;100.00;100342.69;5049515;28;20016;-66
2022/04/19 06:18:03;;;;;;;12.35;8.75;;;;;;;7.72;100.00;100347.13;5049436;28;20058;-66
2022/04/19 06:20:28;;;;;;;15.85;8.48;;;;;;;7.97;100.00;100360.09;5048817;28;20793;-66
2022/04/19 06:22:53;;;;;;;10.48;8.18;;;;;;;8.06;100.00;100345.78;5049090;28;20934;-66
2022/04/19 06:25:19;;;;;;;10.18;8.10;;;;;;;8.15;100.00;100337.53;5040497;28;20028;-66
2022/04/19 06:27:45;;;;;;;13.25;8.13;;;;;;;8.34;100.00;100353.38;5030470;28;20046;-66
2022/04/19 06:30:11;;;;;;;14.27;8.52;;;;;;;8.48;100.00;100361.50;5042448;28;20028;-66
2022/04/19 06:32:36;;;;;;;16.02;8.75;;;;;;;8.60;100.00;100363.59;5048569;28;20873;-66
2022/04/19 06:35:02;;;;;;;10.80;7.75;;;;;;;8.38;100.00;100315.69;5032562;28;20047;-66
2022/04/19 06:37:29;;;;;;;10.65;8.55;;;;;;;8.77;100.00;100363.72;5049985;28;20147;-69
2022/04/19 06:39:54;;;;;;;10.77;7.63;;;;;;;8.76;100.00;100356.78;5041780;28;20078;-66
2022/04/19 06:42:20;;;;;;;11.55;8.30;;;;;;;8.84;100.00;100364.31;5026065;28;20828;-66
2022/04/19 06:44:45;;;;;;;12.30;7.45;;;;;;;8.94;100.00;100371.72;5045581;28;20034;-66
2022/04/19 06:47:10;;;;;;;12.65;8.00;;;;;;;8.89;100.00;100357.94;5049046;28;20951;-67
2022/04/19 06:49:38;;;;;;;12.20;8.32;;;;;;;8.97;100.00;100360.22;5050065;28;20042;-67
2022/04/19 06:52:06;;;;;;;10.70;7.70;;;;;;;9.06;100.00;100372.91;5030917;28;20024;-67
2022/04/19 06:54:32;;;;;;;13.43;7.90;;;;;;;9.03;100.00;100359.97;5048915;28;20024;-66
2022/04/19 06:56:57;;;;;;;11.05;5.88;;;;;;;9.04;100.00;100348.56;5049194;28;20039;-67
2022/04/19 06:59:23;;;;;;;13.82;8.43;;;;;;;9.00;100.00;100321.63;5048995;28;20067;-66
2022/04/19 07:01:49;;;;;;;9.27;6.75;;;;;;;9.36;100.00;100370.72;5048746;28;20233;-67
2022/04/19 07:04:14;;;;;;;9.38;6.82;;;;;;;9.44;100.00;100369.44;5049404;28;20035;-67
2022/04/19 07:06:39;;;;;;;9.55;6.50;;;;;;;9.56;100.00;100373.28;5048596;28;20900;-67
2022/04/19 07:09:05;;;;;;;10.00;6.68;;;;;;;9.54;100.00;100341.84;5031773;28;20093;-67
2022/04/19 07:11:30;;;;;;;16.30;5.57;;;;;;;9.76;100.00;100362.69;5051875;28;20127;-67
2022/04/19 07:13:56;;;;;;;9.05;6.35;;;;;;;9.82;100.00;100357.16;5053186;28;20137;-67
2022/04/19 07:16:21;;;;;;;8.27;6.07;;;;;;;9.95;100.00;100354.78;5054022;28;21008;-67
2022/04/19 07:18:47;;;;;;;13.00;6.05;;;;;;;10.06;100.00;100348.09;5053054;28;21135;-67
2022/04/19 07:26:40;;;;;;;11.07;5.47;;;;;;;10.61;100.00;100358.50;5053184;28;20942;-68
2022/04/19 07:29:13;;;;;;;9.13;6.00;;;;;;;10.74;100.00;100370.94;5054002;28;20306;-68
2022/04/19 07:31:40;;;;;;;6.82;5.13;;;;;;;10.66;100.00;100340.72;5052267;28;20024;-68
2022/04/19 07:34:06;;;;;;;12.85;5.75;;;;;;;10.91;100.00;100363.97;5052246;28;20950;-66
2022/04/19 07:36:35;;;;;;;9.98;5.43;;;;;;;10.86;100.00;100353.69;5035728;28;20081;-67
2022/04/19 07:39:01;;;;;;;9.95;5.85;;;;;;;10.70;100.00;100337.00;5052273;28;20089;-67
2022/04/19 07:41:26;;;;;;;9.32;5.20;;;;;;;11.06;100.00;100382.41;5052663;28;20092;-67
2022/04/19 07:43:52;;;;;;;8.07;5.72;;;;;;;10.96;100.00;100361.94;5052500;28;20024;-67
2022/04/19 07:46:18;;;;;;;11.45;5.75;;;;;;;11.08;100.00;100370.06;5053669;28;20926;-67
2022/04/19 07:48:44;;;;;;;9.57;6.38;;;;;;;11.11;100.00;100369.88;5052432;28;20869;-67
2022/04/19 07:51:10;;;;;;;8.30;5.55;;;;;;;11.34;100.00;100386.22;5052527;28;20923;-66
2022/04/19 07:53:35;;;;;;;6.57;4.90;;;;;;;11.39;100.00;100394.72;5053088;28;20081;-67
2022/04/19 07:56:01;;;;;;;10.32;6.10;;;;;;;11.35;100.00;100388.78;5051824;28;20826;-67
2022/04/19 07:58:26;;;;;;;13.02;6.07;;;;;;;11.04;100.00;100330.84;5051770;28;20032;-66
2022/04/19 08:00:52;;;;;;;9.50;5.63;;;;;;;11.52;100.00;100385.22;5052695;28;20024;-67
2022/04/19 08:03:17;;;;;;;8.55;5.38;;;;;;;11.60;100.00;100388.28;5051736;28;20024;-67
2022/04/19 08:05:43;;;;;;;8.05;4.32;;;;;;;11.62;100.00;100373.28;5051358;28;20869;-67
2022/04/19 08:08:08;;;;;;;7.25;5.93;;;;;;;11.82;99.99;100393.25;5051391;28;20129;-67
2022/04/19 08:10:33;;;;;;;10.70;5.80;;;;;;;11.84;97.30;100375.59;5034022;28;20032;-67
2022/04/19 08:13:00;;;;;;;7.68;5.60;;;;;;;11.99;97.42;100380.00;5051740;28;20027;-66
2022/04/19 08:15:25;;;;;;;10.82;6.18;;;;;;;12.08;96.61;100372.44;5053182;28;20087;-67
2022/04/19 08:17:51;;;;;;;11.07;6.45;;;;;;;12.23;96.42;100384.72;5053632;28;20858;-66
2022/04/19 08:20:16;;;;;;;7.82;5.88;;;;;;;12.36;95.86;100384.03;5034573;28;20051;-66
2022/04/19 08:22:42;;;;;;;11.95;7.25;;;;;;;12.39;95.12;100373.31;5051709;28;20134;-67
2022/04/19 08:25:10;;;;;;;9.63;6.88;;;;;;;12.49;92.67;100374.47;5034343;28;20139;-66
2022/04/19 08:27:40;;;;;;;10.90;7.97;;;;;;;12.53;92.61;100379.47;5034270;28;20032;-67
2022/04/19 08:30:08;;;;;;;7.55;6.75;;;;;;;12.66;91.54;100377.81;5051415;28;20956;-67
2022/04/19 08:32:33;;;;;;;10.80;6.97;;;;;;;12.68;89.80;100370.66;5052493;28;20103;-67
2022/04/19 08:34:59;;;;;;;12.45;7.38;;;;;;;12.58;88.24;100348.41;5051266;28;20792;-68
2022/04/19 08:37:30;;;;;;;13.98;7.72;;;;;;;12.72;87.57;100358.13;5051401;28;20034;-66
2022/04/19 08:39:55;;;;;;;13.90;7.18;;;;;;;12.81;87.91;100370.75;5051600;28;20036;-67
2022/04/19 08:42:21;;;;;;;11.45;7.57;;;;;;;12.76;87.65;100343.84;5051770;28;20074;-66
2022/04/19 08:44:47;;;;;;;11.65;7.95;;;;;;;12.95;87.68;100362.88;5034051;28;20142;-67
2022/04/19 08:47:12;;;;;;;12.60;7.15;;;;;;;12.99;88.70;100356.47;5033445;28;20032;-67
2022/04/19 08:49:41;;;;;;;9.88;7.32;;;;;;;13.15;88.25;100365.19;5051086;28;20028;-68
2022/04/19 08:52:07;;;;;;;9.73;6.93;;;;;;;13.31;86.49;100363.28;5052778;28;20020;-67
2022/04/19 08:57:29;;;;;;;9.43;6.75;;;;;;;13.62;85.30;100369.31;5037440;28;20147;-67
2022/04/19 08:59:55;;;;;;;10.10;6.65;;;;;;;13.82;85.48;100366.25;5035676;28;20233;-67
2022/04/19 09:02:29;;;;;;;11.48;6.93;;;;;;;13.84;83.63;100348.50;5053180;28;20832;-67
2022/04/19 09:05:11;;;;;;;8.52;6.80;;;;;;;14.00;82.71;100354.50;5033729;28;20127;-67
2022/04/19 09:07:37;;;;;;;11.60;7.45;;;;;;;14.09;80.85;100345.13;5052665;28;20043;-67
2022/04/19 09:10:03;;;;;;;9.40;7.05;;;;;;;14.32;82.26;100355.88;5049058;28;20812;-67
2022/04/19 09:12:29;;;;;;;7.97;5.07;;;;;;;14.38;79.19;100351.16;5051734;28;20165;-66
2022/04/19 09:15:00;;;;;;;11.02;6.97;;;;;;;14.38;77.27;100337.94;5053772;28;20028;-76
2022/04/19 09:17:40;;;;;;;9.60;5.90;;;;;;;14.55;77.95;100356.16;5035453;28;20024;-66
2022/04/19 09:20:18;;;;;;;13.55;6.47;;;;;;;14.65;76.86;100351.97;5055597;28;20082;-67
2022/04/19 09:22:45;;;;;;;8.75;6.68;;;;;;;14.73;78.39;100333.78;5058909;28;20028;-67
2022/04/19 09:25:27;;;;;;;10.73;6.22;;;;;;;15.01;78.18;100351.22;5038941;28;20032;-67
2022/04/19 09:27:56;;;;;;;11.18;6.65;;;;;;;15.06;75.51;100343.84;5053835;28;20039;-67
2022/04/19 09:30:22;;;;;;;13.73;7.57;;;;;;;15.10;73.69;100355.91;5045395;28;20031;-68
2022/04/19 09:33:06;;;;;;;10.68;7.93;;;;;;;15.10;73.54;100346.16;5055244;28;20036;-69
2022/04/19 09:35:35;;;;;;;12.38;7.35;;;;;;;15.17;75.03;100354.53;5052238;28;20044;-67
2022/04/19 09:38:01;;;;;;;10.93;6.47;;;;;;;15.14;73.04;100320.34;5022362;28;20048;-67
2022/04/19 09:40:38;;;;;;;10.63;6.05;;;;;;;15.25;72.74;100331.84;5034395;28;20036;-66
2022/04/19 09:43:13;;;;;;;10.02;6.05;;;;;;;15.41;71.82;100341.38;5046126;28;20074;-67
2022/04/19 09:45:55;;;;;;;13.77;6.80;;;;;;;15.55;71.57;100343.88;5037701;28;20036;-68
2022/04/19 09:48:28;;;;;;;15.27;7.13;;;;;;;15.71;72.60;100340.06;5021729;28;20028;-67
2022/04/19 09:50:57;;;;;;;8.48;5.57;;;;;;;15.86;70.25;100338.06;5033682;28;20540;-67
2022/04/19 09:53:25;;;;;;;8.38;5.70;;;;;;;15.94;67.56;100333.06;5043544;28;20063;-68
2022/04/19 09:55:52;;;;;;;10.27;5.85;;;;;;;15.72;65.87;100303.78;5034688;28;20037;-68
2022/04/19 09:58:18;;;;;;;8.32;5.38;;;;;;;15.96;64.98;100336.44;5035121;28;20082;-68
2022/04/19 10:00:45;;;;;;;10.52;5.82;;;;;;;15.92;66.69;100316.41;5046968;28;20866;-67
2022/04/19 10:08:43;;;;;;;10.93;5.97;;;;;;;16.43;64.91;100317.00;5030621;28;21071;-66
2022/04/19 10:11:09;;;;;;;12.82;6.80;;;;;;;16.49;63.54;100323.66;5032259;28;20779;-67
2022/04/19 10:13:38;;;;;;;8.75;6.22;;;;;;;16.34;65.56;100288.53;5035350;28;20041;-68
2022/04/19 10:16:08;;;;;;;9.23;6.47;;;;;;;16.60;62.03;100323.69;5038960;28;20037;-67
2022/04/19 10:18:34;;;;;;;10.25;5.47;;;;;;;16.66;63.97;100324.06;5038990;28;20853;-68
2022/04/19 10:21:00;;;;;;;5.95;4.93;;;;;;;16.76;64.39;100287.09;5017478;28;20037;-67
2022/04/19 10:23:37;;;;;;;14.65;6.43;;;;;;;17.06;63.19;100297.97;5032680;28;20966;-67
2022/04/19 10:26:22;;;;;;;12.70;6.15;;;;;;;17.17;59.97;100313.03;5042406;28;20028;-68
2022/04/19 10:28:50;;;;;;;8.10;6.78;;;;;;;17.07;60.65;100298.78;5050343;28;20079;-67
2022/04/19 10:31:35;;;;;;;9.82;6.55;;;;;;;17.11;61.07;100303.75;5040549;28;20051;-67
2022/04/19 10:34:06;;;;;;;14.27;5.22;;;;;;;17.08;58.04;100309.31;5040634;28;20036;-67
2022/04/19 10:36:39;;;;;;;9.10;5.00;;;;;;;16.97;57.31;100305.78;5027851;28;20027;-68
2022/04/19 10:39:08;;;;;;;12.70;6.28;;;;;;;17.04;57.95;100312.31;5050955;28;20027;-69
2022/04/19 10:41:56;;;;;;;12.40;6.22;;;;;;;17.04;58.96;100291.06;5047926;28;20040;-67
2022/04/19 10:44:52;;;;;;;10.55;6.03;;;;;;;17.15;59.76;100294.56;5051550;28;20060;-67
2022/04/19 10:47:27;;;;;;;9.93;6.03;;;;;;;17.31;59.29;100289.72;5011028;28;20044;-67
2022/04/19 10:49:59;;;;;;;10.48;5.90;;;;;;;17.20;59.49;100246.44;5049621;28;20048;-68
2022/04/19 10:52:40;;;;;;;8.32;6.43;;;;;;;17.64;59.06;100303.97;5050651;28;20038;-67
2022/04/19 10:55:11;;;;;;;10.38;5.82;;;;;;;17.62;55.95;100293.47;5046859;28;20034;-68
2022/04/19 11:00:29;;;;;;;12.13;6.95;;;;;;;17.56;56.38;100239.97;5035665;28;20051;-67
2022/04/19 11:03:00;;;;;;;10.00;6.32;;;;;;;17.96;57.68;100294.22;5045259;28;20152;-68
2022/04/19 11:05:47;;;;;;;9.30;6.57;;;;;;;18.11;56.24;100292.09;5046458;28;20082;-68
2022/04/19 11:08:25;;;;;;;10.80;6.85;;;;;;;18.20;55.38;100289.53;5047588;28;20025;-67
2022/04/19 11:10:56;;;;;;;12.68;7.75;;;;;;;18.50;53.64;100291.44;5049224;28;20162;-68
2022/04/19 11:13:34;;;;;;;10.27;7.43;;;;;;;18.56;54.25;100295.41;5048805;28;20035;-68
2022/04/19 11:16:07;;;;;;;8.27;6.38;;;;;;;18.43;54.84;100281.41;5048660;28;20032;-68
2022/04/19 11:18:34;;;;;;;9.57;6.82;;;;;;;18.40;52.49;100287.84;5029184;28;20434;-68
2022/04/19 11:21:06;;;;;;;8.43;5.68;;;;;;;18.65;56.18;100289.31;5045667;28;20035;-67
2022/04/19 11:23:49;;;;;;;10.57;6.90;;;;;;;19.21;56.01;100293.22;5041458;28;20031;-68
2022/04/19 11:26:26;;;;;;;14.38;7.72;;;;;;;19.39;54.94;100291.63;5014992;28;20151;-67
2022/04/19 11:29:10;;;;;;;8.70;6.95;;;;;;;19.55;52.19;100280.47;5048988;28;20032;-68
2022/04/19 11:31:45;;;;;;;11.33;7.33;;;;;;;19.65;53.05;100278.66;5048646;28;20042;-68
2022/04/19 11:34:12;;;;;;;;;;;;;;;19.84;54.70;100284.00;5048799;28;20297;-68
2022/04/19 11:36:38;;;;;;;11.45;7.00;;;;;;;20.23;50.64;100268.03;5049604;28;20030;-68
2022/04/19 11:39:04;;;;;;;9.68;6.65;;;;;;;20.37;50.63;100276.47;5048204;28;20031;-66
2022/04/19 11:46:49;;;;;;;10.77;7.57;;;;;;;25.69;45.62;100273.44;5048481;28;20466;-67
2022/04/19 11:49:29;;;;;;;10.40;7.82;;;;;;;27.79;41.33;100274.94;5047917;28;20127;-67
2022/04/19 11:51:56;;;;;;;13.70;8.95;;;;;;;28.97;39.25;100274.34;5048216;28;20024;-66
2022/04/19 11:54:30;;;;;;;9.85;6.68;;;;;;;29.77;36.27;100263.72;5047895;28;20046;-67
2022/04/19 11:56:58;;;;;;;9.82;7.00;;;;;;;30.31;33.72;100264.47;5049835;28;20051;-68
2022/04/19 11:59:28;;;;;;;11.75;7.03;;;;;;;30.17;35.00;100260.09;5033694;28;20788;-66